sensor_id;sensor_type;location;lat;lon;timestamp;pressure;altitude;pressure_sealevel;temperature;humidity
18527;BME280;9393;42.158;24.748;2022-11-25T00:00:18;99175.09;;;11.31;56.87
18527;BME280;9393;42.158;24.748;2022-11-25T00:03:23;99180.19;;;11.14;56.88
18527;BME280;9393;42.158;24.748;2022-11-25T00:06:29;99182.59;;;11.08;57.44
18527;BME280;9393;42.158;24.748;2022-11-25T00:09:33;99173.81;;;11.09;57.41
18527;BME280;9393;42.158;24.748;2022-11-25T00:12:37;99186.28;;;10.97;57.50
18527;BME280;9393;42.158;24.748;2022-11-25T00:15:40;99177.91;;;11.11;57.09
18527;BME280;9393;42.158;24.748;2022-11-25T00:18:46;99183.56;;;11.07;57.16
18527;BME280;9393;42.158;24.748;2022-11-25T00:21:50;99183.47;;;11.17;56.99
18527;BME280;9393;42.158;24.748;2022-11-25T00:24:54;99177.31;;;11.26;56.67
18527;BME280;9393;42.158;24.748;2022-11-25T00:28:00;99190.38;;;11.26;56.64
18527;BME280;9393;42.158;24.748;2022-11-25T00:31:05;99189.66;;;11.15;56.94
18527;BME280;9393;42.158;24.748;2022-11-25T00:34:12;99182.56;;;11.26;56.69
18527;BME280;9393;42.158;24.748;2022-11-25T00:37:16;99193.31;;;11.23;56.58
18527;BME280;9393;42.158;24.748;2022-11-25T00:40:20;99182.19;;;11.21;56.59
18527;BME280;9393;42.158;24.748;2022-11-25T00:43:24;99191.25;;;11.08;57.02
18527;BME280;9393;42.158;24.748;2022-11-25T00:46:45;99185.28;;;11.16;56.75
18527;BME280;9393;42.158;24.748;2022-11-25T00:49:51;99185.78;;;11.20;56.36
18527;BME280;9393;42.158;24.748;2022-11-25T00:52:56;99181.84;;;11.15;56.42
18527;BME280;9393;42.158;24.748;2022-11-25T00:56:00;99185.47;;;11.23;56.11
18527;BME280;9393;42.158;24.748;2022-11-25T00:59:16;99184.50;;;11.24;55.91
18527;BME280;9393;42.158;24.748;2022-11-25T01:02:21;99209.97;;;11.04;55.96
18527;BME280;9393;42.158;24.748;2022-11-25T01:05:26;99187.25;;;11.22;55.44
18527;BME280;9393;42.158;24.748;2022-11-25T01:08:30;99192.28;;;11.15;55.40
18527;BME280;9393;42.158;24.748;2022-11-25T01:11:34;99188.44;;;11.02;55.56
18527;BME280;9393;42.158;24.748;2022-11-25T01:14:38;99193.72;;;11.10;55.37
18527;BME280;9393;42.158;24.748;2022-11-25T01:17:42;99192.38;;;11.32;54.81
18527;BME280;9393;42.158;24.748;2022-11-25T01:20:48;99188.78;;;11.33;54.78
18527;BME280;9393;42.158;24.748;2022-11-25T01:23:52;99200.56;;;11.11;55.06
18527;BME280;9393;42.158;24.748;2022-11-25T01:26:56;99190.13;;;11.11;54.85
18527;BME280;9393;42.158;24.748;2022-11-25T01:30:00;99190.31;;;11.18;54.56
18527;BME280;9393;42.158;24.748;2022-11-25T01:33:03;99195.19;;;11.12;54.90
18527;BME280;9393;42.158;24.748;2022-11-25T01:36:11;99193.78;;;11.00;55.44
18527;BME280;9393;42.158;24.748;2022-11-25T01:39:18;99193.38;;;10.87;55.74
18527;BME280;9393;42.158;24.748;2022-11-25T01:42:22;99190.84;;;10.95;55.51
18527;BME280;9393;42.158;24.748;2022-11-25T01:45:34;99201.59;;;10.92;56.00
18527;BME280;9393;42.158;24.748;2022-11-25T01:48:42;99190.13;;;11.11;55.78
18527;BME280;9393;42.158;24.748;2022-11-25T01:51:54;99195.84;;;10.89;56.14
18527;BME280;9393;42.158;24.748;2022-11-25T01:55:02;99200.09;;;11.15;55.73
18527;BME280;9393;42.158;24.748;2022-11-25T01:58:11;99206.59;;;11.11;55.96
18527;BME280;9393;42.158;24.748;2022-11-25T02:01:17;99208.25;;;11.12;56.09
18527;BME280;9393;42.158;24.748;2022-11-25T02:04:25;99204.59;;;11.05;56.41
18527;BME280;9393;42.158;24.748;2022-11-25T02:07:35;99200.41;;;11.12;56.30
18527;BME280;9393;42.158;24.748;2022-11-25T02:10:39;99211.19;;;11.18;56.21
18527;BME280;9393;42.158;24.748;2022-11-25T02:13:45;99206.09;;;11.08;56.69
18527;BME280;9393;42.158;24.748;2022-11-25T02:16:49;99215.28;;;10.94;56.87
18527;BME280;9393;42.158;24.748;2022-11-25T02:19:58;99210.69;;;10.88;56.91
18527;BME280;9393;42.158;24.748;2022-11-25T02:23:09;99210.25;;;10.93;56.98
18527;BME280;9393;42.158;24.748;2022-11-25T02:26:20;99220.81;;;10.91;57.27
18527;BME280;9393;42.158;24.748;2022-11-25T02:29:25;99223.03;;;10.86;57.53
18527;BME280;9393;42.158;24.748;2022-11-25T02:32:29;99215.53;;;10.83;57.42
18527;BME280;9393;42.158;24.748;2022-11-25T02:35:36;99219.69;;;10.76;57.29
18527;BME280;9393;42.158;24.748;2022-11-25T02:38:43;99213.84;;;11.00;56.82
18527;BME280;9393;42.158;24.748;2022-11-25T02:41:53;99215.34;;;11.02;56.40
18527;BME280;9393;42.158;24.748;2022-11-25T02:44:58;99214.13;;;11.14;56.22
18527;BME280;9393;42.158;24.748;2022-11-25T02:48:02;99214.28;;;11.13;55.97
18527;BME280;9393;42.158;24.748;2022-11-25T02:51:07;99212.59;;;10.86;56.53
18527;BME280;9393;42.158;24.748;2022-11-25T02:54:12;99209.97;;;11.04;55.80
18527;BME280;9393;42.158;24.748;2022-11-25T02:57:18;99214.38;;;11.03;55.74
18527;BME280;9393;42.158;24.748;2022-11-25T03:00:22;99217.31;;;10.83;56.05
18527;BME280;9393;42.158;24.748;2022-11-25T03:03:26;99215.81;;;10.98;55.74
18527;BME280;9393;42.158;24.748;2022-11-25T03:06:29;99207.53;;;11.02;55.42
18527;BME280;9393;42.158;24.748;2022-11-25T03:09:33;99208.72;;;10.90;55.69
18527;BME280;9393;42.158;24.748;2022-11-25T03:12:39;99220.38;;;10.96;55.61
18527;BME280;9393;42.158;24.748;2022-11-25T03:15:43;99215.53;;;10.83;55.75
18527;BME280;9393;42.158;24.748;2022-11-25T03:18:47;99212.78;;;10.85;55.73
18527;BME280;9393;42.158;24.748;2022-11-25T03:21:50;99209.13;;;11.03;nan
18527;BME280;9393;42.158;24.748;2022-11-25T03:24:54;99214.97;;;10.97;55.29
18527;BME280;9393;42.158;24.748;2022-11-25T03:28:00;99218.16;;;11.09;55.50
18527;BME280;9393;42.158;24.748;2022-11-25T03:31:06;99209.63;;;10.99;55.38
18527;BME280;9393;42.158;24.748;2022-11-25T03:34:12;99203.78;;;11.05;55.17
18527;BME280;9393;42.158;24.748;2022-11-25T03:37:17;99207.34;;;11.04;55.25
18527;BME280;9393;42.158;24.748;2022-11-25T03:40:22;99213.09;;;11.07;55.35
18527;BME280;9393;42.158;24.748;2022-11-25T03:43:27;99224.69;;;10.87;55.59
18527;BME280;9393;42.158;24.748;2022-11-25T03:46:32;99233.41;;;10.96;55.52
18527;BME280;9393;42.158;24.748;2022-11-25T03:49:38;99224.81;;;11.03;55.49
18527;BME280;9393;42.158;24.748;2022-11-25T03:52:43;99238.09;;;11.10;55.06
18527;BME280;9393;42.158;24.748;2022-11-25T03:55:47;99232.78;;;11.02;55.12
18527;BME280;9393;42.158;24.748;2022-11-25T03:58:56;99236.41;;;11.27;54.89
18527;BME280;9393;42.158;24.748;2022-11-25T04:01:59;99240.84;;;11.08;54.70
18527;BME280;9393;42.158;24.748;2022-11-25T04:05:04;99240.84;;;11.08;54.68
18527;BME280;9393;42.158;24.748;2022-11-25T04:08:13;99240.91;;;11.17;54.60
18527;BME280;9393;42.158;24.748;2022-11-25T04:11:20;99241.63;;;11.27;53.90
18527;BME280;9393;42.158;24.748;2022-11-25T04:14:46;99248.94;;;11.23;53.79
18527;BME280;9393;42.158;24.748;2022-11-25T04:17:49;99252.31;;;11.15;54.17
18527;BME280;9393;42.158;24.748;2022-11-25T04:20:53;99257.66;;;11.14;54.03
18527;BME280;9393;42.158;24.748;2022-11-25T04:23:59;99262.00;;;11.23;54.08
18527;BME280;9393;42.158;24.748;2022-11-25T04:27:03;99252.63;;;10.95;54.22
18527;BME280;9393;42.158;24.748;2022-11-25T04:30:09;99269.03;;;11.05;54.33
18527;BME280;9393;42.158;24.748;2022-11-25T04:33:15;99275.19;;;11.04;54.50
18527;BME280;9393;42.158;24.748;2022-11-25T04:36:21;99259.84;;;11.01;54.54
18527;BME280;9393;42.158;24.748;2022-11-25T04:39:25;99270.88;;;11.12;54.42
18527;BME280;9393;42.158;24.748;2022-11-25T04:42:33;99277.59;;;10.97;54.82
18527;BME280;9393;42.158;24.748;2022-11-25T04:45:43;99266.59;;;10.68;55.56
18527;BME280;9393;42.158;24.748;2022-11-25T04:49:10;99267.47;;;10.94;55.32
18527;BME280;9393;42.158;24.748;2022-11-25T04:52:14;99270.81;;;10.87;55.28
18527;BME280;9393;42.158;24.748;2022-11-25T04:55:19;99273.28;;;10.88;55.35
18527;BME280;9393;42.158;24.748;2022-11-25T04:58:24;99273.34;;;10.96;55.17
18527;BME280;9393;42.158;24.748;2022-11-25T05:01:58;99278.38;;;10.72;55.67
18527;BME280;9393;42.158;24.748;2022-11-25T05:05:14;99286.38;;;10.96;55.30
18527;BME280;9393;42.158;24.748;2022-11-25T05:08:17;99289.50;;;11.00;55.09
18527;BME280;9393;42.158;24.748;2022-11-25T05:11:21;99300.13;;;10.98;55.21
18527;BME280;9393;42.158;24.748;2022-11-25T05:14:29;99297.44;;;10.90;55.35
18527;BME280;9393;42.158;24.748;2022-11-25T05:17:36;99303.91;;;11.04;55.02
18527;BME280;9393;42.158;24.748;2022-11-25T05:20:44;99313.00;;;11.00;54.58
18527;BME280;9393;42.158;24.748;2022-11-25T05:23:53;99317.34;;;10.91;54.82
18527;BME280;9393;42.158;24.748;2022-11-25T05:27:00;99320.69;;;11.01;54.28
18527;BME280;9393;42.158;24.748;2022-11-25T05:30:07;99324.78;;;11.04;54.39
18527;BME280;9393;42.158;24.748;2022-11-25T05:33:16;99332.09;;;11.00;54.34
18527;BME280;9393;42.158;24.748;2022-11-25T05:36:24;99329.94;;;11.13;53.92
18527;BME280;9393;42.158;24.748;2022-11-25T05:39:29;99341.13;;;11.06;54.29
18527;BME280;9393;42.158;24.748;2022-11-25T05:42:53;99359.53;;;11.04;53.83
18527;BME280;9393;42.158;24.748;2022-11-25T05:45:57;99349.69;;;11.16;54.13
18527;BME280;9393;42.158;24.748;2022-11-25T05:49:04;99366.31;;;11.15;54.28
18527;BME280;9393;42.158;24.748;2022-11-25T05:52:13;99371.00;;;11.11;54.20
18527;BME280;9393;42.158;24.748;2022-11-25T05:55:26;99378.75;;;11.03;54.68
18527;BME280;9393;42.158;24.748;2022-11-25T05:58:32;99378.31;;;11.08;54.89
18527;BME280;9393;42.158;24.748;2022-11-25T06:01:38;99387.50;;;11.12;54.78
18527;BME280;9393;42.158;24.748;2022-11-25T06:04:44;99396.44;;;11.09;54.89
18527;BME280;9393;42.158;24.748;2022-11-25T06:07:51;99391.88;;;11.11;55.19
18527;BME280;9393;42.158;24.748;2022-11-25T06:10:56;99399.28;;;11.16;54.97
18527;BME280;9393;42.158;24.748;2022-11-25T06:14:00;99405.03;;;11.20;55.00
18527;BME280;9393;42.158;24.748;2022-11-25T06:17:04;99410.59;;;11.25;54.91
18527;BME280;9393;42.158;24.748;2022-11-25T06:20:17;99400.97;;;11.07;55.58
18527;BME280;9393;42.158;24.748;2022-11-25T06:23:21;99419.94;;;11.09;55.52
18527;BME280;9393;42.158;24.748;2022-11-25T06:26:25;99422.59;;;11.18;55.21
18527;BME280;9393;42.158;24.748;2022-11-25T06:29:30;99431.88;;;11.12;55.27
18527;BME280;9393;42.158;24.748;2022-11-25T06:32:34;99442.00;;;11.15;55.32
18527;BME280;9393;42.158;24.748;2022-11-25T06:35:51;99447.09;;;11.17;55.33
18527;BME280;9393;42.158;24.748;2022-11-25T06:38:55;99451.50;;;11.34;54.95
18527;BME280;9393;42.158;24.748;2022-11-25T06:41:59;99462.06;;;11.32;55.15
18527;BME280;9393;42.158;24.748;2022-11-25T06:45:06;99464.38;;;11.35;54.97
18527;BME280;9393;42.158;24.748;2022-11-25T06:48:10;99459.91;;;11.28;54.96
18527;BME280;9393;42.158;24.748;2022-11-25T06:51:19;99463.25;;;11.38;55.01
18527;BME280;9393;42.158;24.748;2022-11-25T06:54:23;99469.34;;;11.11;55.43
18527;BME280;9393;42.158;24.748;2022-11-25T06:57:26;99463.63;;;11.07;55.44
18527;BME280;9393;42.158;24.748;2022-11-25T07:00:30;99471.25;;;11.36;54.65
18527;BME280;9393;42.158;24.748;2022-11-25T07:03:37;99488.78;;;11.26;55.20
18527;BME280;9393;42.158;24.748;2022-11-25T07:06:42;99489.22;;;11.22;55.10
18527;BME280;9393;42.158;24.748;2022-11-25T07:09:46;99488.09;;;11.24;55.15
18527;BME280;9393;42.158;24.748;2022-11-25T07:12:50;99495.03;;;11.15;55.59
18527;BME280;9393;42.158;24.748;2022-11-25T07:15:54;99489.72;;;11.07;55.99
18527;BME280;9393;42.158;24.748;2022-11-25T07:18:58;99497.94;;;11.12;56.19
18527;BME280;9393;42.158;24.748;2022-11-25T07:22:06;99495.66;;;11.27;55.74
18527;BME280;9393;42.158;24.748;2022-11-25T07:25:13;99491.22;;;11.10;56.19
18527;BME280;9393;42.158;24.748;2022-11-25T07:28:16;99500.19;;;11.25;56.01
18527;BME280;9393;42.158;24.748;2022-11-25T07:31:24;99503.53;;;11.18;56.18
18527;BME280;9393;42.158;24.748;2022-11-25T07:34:32;99521.78;;;11.18;55.80
18527;BME280;9393;42.158;24.748;2022-11-25T07:37:38;99515.59;;;11.46;55.24
18527;BME280;9393;42.158;24.748;2022-11-25T07:40:41;99512.06;;;11.37;55.62
18527;BME280;9393;42.158;24.748;2022-11-25T07:43:47;99518.25;;;11.36;55.52
18527;BME280;9393;42.158;24.748;2022-11-25T07:46:55;99524.91;;;11.31;55.51
18527;BME280;9393;42.158;24.748;2022-11-25T07:49:59;99529.84;;;11.24;55.53
18527;BME280;9393;42.158;24.748;2022-11-25T07:53:04;99526.56;;;11.49;54.96
18527;BME280;9393;42.158;24.748;2022-11-25T07:56:08;99531.84;;;11.40;54.88
18527;BME280;9393;42.158;24.748;2022-11-25T07:59:15;99531.53;;;11.43;54.97
18527;BME280;9393;42.158;24.748;2022-11-25T08:02:19;99536.09;;;11.58;54.62
18527;BME280;9393;42.158;24.748;2022-11-25T08:05:26;99536.50;;;11.63;54.60
18527;BME280;9393;42.158;24.748;2022-11-25T08:08:31;99536.88;;;11.86;53.73
18527;BME280;9393;42.158;24.748;2022-11-25T08:11:36;99551.97;;;11.75;54.06
18527;BME280;9393;42.158;24.748;2022-11-25T08:14:40;99553.47;;;11.77;53.86
18527;BME280;9393;42.158;24.748;2022-11-25T08:17:45;99562.97;;;11.96;53.10
18527;BME280;9393;42.158;24.748;2022-11-25T08:20:57;99554.66;;;12.00;52.71
18527;BME280;9393;42.158;24.748;2022-11-25T08:24:04;99558.81;;;12.29;51.90
18527;BME280;9393;42.158;24.748;2022-11-25T08:27:08;99553.56;;;13.06;49.82
18527;BME280;9393;42.158;24.748;2022-11-25T08:30:13;99554.84;;;13.36;48.75
18527;BME280;9393;42.158;24.748;2022-11-25T08:33:16;99555.88;;;13.51;47.22
18527;BME280;9393;42.158;24.748;2022-11-25T08:36:21;99548.25;;;13.98;45.82
18527;BME280;9393;42.158;24.748;2022-11-25T08:39:27;99570.56;;;14.34;45.08
18527;BME280;9393;42.158;24.748;2022-11-25T08:42:52;99548.41;;;14.29;44.55
18527;BME280;9393;42.158;24.748;2022-11-25T08:45:56;99539.38;;;14.72;43.20
18527;BME280;9393;42.158;24.748;2022-11-25T08:48:59;99542.47;;;14.75;43.24
18527;BME280;9393;42.158;24.748;2022-11-25T08:52:03;99540.34;;;15.17;42.32
18527;BME280;9393;42.158;24.748;2022-11-25T08:55:09;99546.88;;;15.30;41.74
18527;BME280;9393;42.158;24.748;2022-11-25T08:58:13;99557.91;;;14.70;42.45
18527;BME280;9393;42.158;24.748;2022-11-25T09:01:18;99552.03;;;14.20;42.96
18527;BME280;9393;42.158;24.748;2022-11-25T09:04:22;99546.78;;;13.87;43.86
18527;BME280;9393;42.158;24.748;2022-11-25T09:07:26;99540.38;;;13.82;44.22
18527;BME280;9393;42.158;24.748;2022-11-25T09:10:34;99545.31;;;14.33;42.81
18527;BME280;9393;42.158;24.748;2022-11-25T09:13:38;99541.47;;;14.76;41.23
18527;BME280;9393;42.158;24.748;2022-11-25T09:16:42;99544.16;;;14.52;41.64
18527;BME280;9393;42.158;24.748;2022-11-25T09:19:46;99550.41;;;14.02;42.03
18527;BME280;9393;42.158;24.748;2022-11-25T09:22:49;99547.94;;;14.09;41.77
18527;BME280;9393;42.158;24.748;2022-11-25T09:25:56;99551.03;;;13.96;41.98
18527;BME280;9393;42.158;24.748;2022-11-25T09:29:00;99551.03;;;13.88;42.19
18527;BME280;9393;42.158;24.748;2022-11-25T09:32:04;99546.75;;;13.71;42.42
18527;BME280;9393;42.158;24.748;2022-11-25T09:35:08;99554.13;;;14.24;41.91
18527;BME280;9393;42.158;24.748;2022-11-25T09:38:14;99547.44;;;14.54;41.41
18527;BME280;9393;42.158;24.748;2022-11-25T09:41:36;99552.31;;;14.73;40.71
18527;BME280;9393;42.158;24.748;2022-11-25T09:45:10;99540.88;;;15.13;40.11
18527;BME280;9393;42.158;24.748;2022-11-25T09:48:55;99550.19;;;15.85;39.04
18527;BME280;9393;42.158;24.748;2022-11-25T09:52:08;99566.53;;;16.18;38.36
18527;BME280;9393;42.158;24.748;2022-11-25T09:55:16;99543.72;;;16.33;37.68
18527;BME280;9393;42.158;24.748;2022-11-25T09:58:28;99542.63;;;16.42;37.32
18527;BME280;9393;42.158;24.748;2022-11-25T10:01:43;99540.75;;;16.51;37.27
18527;BME280;9393;42.158;24.748;2022-11-25T10:04:52;99522.47;;;16.57;37.33
18527;BME280;9393;42.158;24.748;2022-11-25T10:08:02;99533.59;;;17.03;36.71
18527;BME280;9393;42.158;24.748;2022-11-25T10:11:21;99526.44;;;16.97;35.85
18527;BME280;9393;42.158;24.748;2022-11-25T10:14:33;99516.81;;;16.90;35.64
18527;BME280;9393;42.158;24.748;2022-11-25T10:17:46;99514.63;;;17.23;35.80
18527;BME280;9393;42.158;24.748;2022-11-25T10:20:54;99528.22;;;17.41;35.29
18527;BME280;9393;42.158;24.748;2022-11-25T10:23:58;99523.28;;;17.02;35.27
18527;BME280;9393;42.158;24.748;2022-11-25T10:27:04;99525.72;;;16.59;35.79
18527;BME280;9393;42.158;24.748;2022-11-25T10:30:17;99513.66;;;16.28;36.55
18527;BME280;9393;42.158;24.748;2022-11-25T10:33:25;99513.44;;;16.37;36.21
18527;BME280;9393;42.158;24.748;2022-11-25T10:36:33;99515.66;;;16.26;36.06
18527;BME280;9393;42.158;24.748;2022-11-25T10:39:40;99512.88;;;16.27;36.05
18527;BME280;9393;42.158;24.748;2022-11-25T10:42:44;99521.84;;;16.33;35.97
18527;BME280;9393;42.158;24.748;2022-11-25T10:45:54;99522.25;;;16.59;35.85
18527;BME280;9393;42.158;24.748;2022-11-25T10:49:08;99522.44;;;16.87;35.69
18527;BME280;9393;42.158;24.748;2022-11-25T10:52:19;99522.38;;;17.09;35.37
18527;BME280;9393;42.158;24.748;2022-11-25T10:55:25;99525.81;;;17.10;35.49
18527;BME280;9393;42.158;24.748;2022-11-25T10:58:31;99533.06;;;17.08;35.52
18527;BME280;9393;42.158;24.748;2022-11-25T11:01:37;99525.91;;;17.02;35.58
18527;BME280;9393;42.158;24.748;2022-11-25T11:04:53;99534.47;;;16.75;35.78
18527;BME280;9393;42.158;24.748;2022-11-25T11:08:17;99528.53;;;17.02;35.61
18527;BME280;9393;42.158;24.748;2022-11-25T11:11:23;99537.97;;;16.96;35.52
18527;BME280;9393;42.158;24.748;2022-11-25T11:14:27;99527.44;;;16.96;35.57
18527;BME280;9393;42.158;24.748;2022-11-25T11:17:35;99516.59;;;17.21;35.39
18527;BME280;9393;42.158;24.748;2022-11-25T11:20:45;99521.84;;;16.85;35.47
18527;BME280;9393;42.158;24.748;2022-11-25T11:23:50;99529.00;;;16.76;36.00
18527;BME280;9393;42.158;24.748;2022-11-25T11:27:02;99525.25;;;17.00;35.94
18527;BME280;9393;42.158;24.748;2022-11-25T11:30:13;99521.28;;;16.75;35.85
18527;BME280;9393;42.158;24.748;2022-11-25T11:33:29;99516.44;;;17.07;35.51
18527;BME280;9393;42.158;24.748;2022-11-25T11:36:48;99521.06;;;17.20;35.18
18527;BME280;9393;42.158;24.748;2022-11-25T11:40:04;99531.50;;;17.13;35.42
18527;BME280;9393;42.158;24.748;2022-11-25T11:43:28;99531.34;;;17.00;35.37
18527;BME280;9393;42.158;24.748;2022-11-25T11:46:47;99525.09;;;17.01;35.82
18527;BME280;9393;42.158;24.748;2022-11-25T11:50:16;99532.84;;;17.24;35.30
18527;BME280;9393;42.158;24.748;2022-11-25T11:53:29;99531.53;;;16.99;34.85
18527;BME280;9393;42.158;24.748;2022-11-25T11:56:37;99523.44;;;17.00;35.37
18527;BME280;9393;42.158;24.748;2022-11-25T11:59:48;99534.81;;;16.86;35.14
18527;BME280;9393;42.158;24.748;2022-11-25T12:02:59;99536.81;;;16.84;35.55
18527;BME280;9393;42.158;24.748;2022-11-25T12:06:09;99548.94;;;17.29;35.62
18527;BME280;9393;42.158;24.748;2022-11-25T12:09:17;99554.63;;;16.82;35.53
18527;BME280;9393;42.158;24.748;2022-11-25T12:12:31;99549.16;;;16.98;35.74
18527;BME280;9393;42.158;24.748;2022-11-25T12:15:41;99565.50;;;16.94;35.65
18527;BME280;9393;42.158;24.748;2022-11-25T12:18:51;99534.63;;;16.73;35.74
18527;BME280;9393;42.158;24.748;2022-11-25T12:22:02;99550.44;;;16.73;36.06
18527;BME280;9393;42.158;24.748;2022-11-25T12:25:13;99559.31;;;16.72;36.42
18527;BME280;9393;42.158;24.748;2022-11-25T12:28:23;99561.75;;;16.59;36.31
18527;BME280;9393;42.158;24.748;2022-11-25T12:31:31;99571.22;;;16.08;36.84
18527;BME280;9393;42.158;24.748;2022-11-25T12:34:47;99561.06;;;15.82;37.71
18527;BME280;9393;42.158;24.748;2022-11-25T12:38:01;99571.50;;;15.68;37.94
18527;BME280;9393;42.158;24.748;2022-11-25T12:41:16;99576.50;;;15.85;37.76
18527;BME280;9393;42.158;24.748;2022-11-25T12:44:28;99576.53;;;16.23;37.49
18527;BME280;9393;42.158;24.748;2022-11-25T12:47:33;99586.75;;;16.17;37.28
18527;BME280;9393;42.158;24.748;2022-11-25T12:50:51;99594.34;;;16.35;36.65
18527;BME280;9393;42.158;24.748;2022-11-25T12:54:09;99595.34;;;16.34;36.54
18527;BME280;9393;42.158;24.748;2022-11-25T12:57:44;99594.31;;;16.21;36.73
18527;BME280;9393;42.158;24.748;2022-11-25T13:05:06;99590.63;;;16.30;36.34
18527;BME280;9393;42.158;24.748;2022-11-25T13:08:53;99604.41;;;16.32;36.71
18527;BME280;9393;42.158;24.748;2022-11-25T13:12:20;99597.63;;;16.60;36.75
18527;BME280;9393;42.158;24.748;2022-11-25T13:15:30;99595.38;;;16.49;37.12
18527;BME280;9393;42.158;24.748;2022-11-25T13:18:39;99608.38;;;16.28;37.48
18527;BME280;9393;42.158;24.748;2022-11-25T13:21:58;99598.53;;;16.30;37.81
18527;BME280;9393;42.158;24.748;2022-11-25T13:25:02;99597.84;;;16.13;38.25
18527;BME280;9393;42.158;24.748;2022-11-25T13:28:27;99596.13;;;16.20;38.15
18527;BME280;9393;42.158;24.748;2022-11-25T13:31:32;99601.34;;;16.05;38.20
18527;BME280;9393;42.158;24.748;2022-11-25T13:34:37;99614.63;;;15.81;38.73
18527;BME280;9393;42.158;24.748;2022-11-25T13:37:41;99608.63;;;15.95;38.88
18527;BME280;9393;42.158;24.748;2022-11-25T13:40:55;99623.59;;;15.95;38.80
18527;BME280;9393;42.158;24.748;2022-11-25T13:44:04;99634.94;;;15.64;39.30
18527;BME280;9393;42.158;24.748;2022-11-25T13:47:27;99630.22;;;15.52;39.70
18527;BME280;9393;42.158;24.748;2022-11-25T13:50:33;99625.97;;;15.35;39.98
18527;BME280;9393;42.158;24.748;2022-11-25T13:53:59;99647.06;;;15.18;40.39
18527;BME280;9393;42.158;24.748;2022-11-25T13:57:24;99646.72;;;15.22;40.31
18527;BME280;9393;42.158;24.748;2022-11-25T14:04:07;99656.97;;;14.92;41.35
18527;BME280;9393;42.158;24.748;2022-11-25T14:07:23;99654.38;;;14.60;42.01
18527;BME280;9393;42.158;24.748;2022-11-25T14:10:41;99666.31;;;14.38;42.01
18527;BME280;9393;42.158;24.748;2022-11-25T14:14:00;99666.63;;;14.19;42.43
18527;BME280;9393;42.158;24.748;2022-11-25T14:17:22;99663.16;;;14.18;42.56
18527;BME280;9393;42.158;24.748;2022-11-25T14:20:38;99670.97;;;13.94;43.35
18527;BME280;9393;42.158;24.748;2022-11-25T14:23:59;99675.91;;;13.89;43.80
18527;BME280;9393;42.158;24.748;2022-11-25T14:27:13;99684.56;;;13.90;43.68
18527;BME280;9393;42.158;24.748;2022-11-25T14:30:17;99689.34;;;13.94;43.63
18527;BME280;9393;42.158;24.748;2022-11-25T14:33:25;99693.72;;;13.78;43.92
18527;BME280;9393;42.158;24.748;2022-11-25T14:36:38;99691.13;;;13.86;43.92
18527;BME280;9393;42.158;24.748;2022-11-25T14:39:47;99703.38;;;13.77;44.39
18527;BME280;9393;42.158;24.748;2022-11-25T14:42:58;99700.31;;;13.48;44.77
18527;BME280;9393;42.158;24.748;2022-11-25T14:46:09;99700.97;;;13.50;44.90
18527;BME280;9393;42.158;24.748;2022-11-25T14:49:13;99709.25;;;13.37;44.92
18527;BME280;9393;42.158;24.748;2022-11-25T14:52:39;99694.41;;;13.20;45.13
18527;BME280;9393;42.158;24.748;2022-11-25T14:55:46;99701.91;;;13.15;45.09
18527;BME280;9393;42.158;24.748;2022-11-25T14:58:52;99703.03;;;13.12;45.01
18527;BME280;9393;42.158;24.748;2022-11-25T15:01:56;99711.47;;;13.06;45.19
18527;BME280;9393;42.158;24.748;2022-11-25T15:05:02;99709.78;;;12.80;45.60
18527;BME280;9393;42.158;24.748;2022-11-25T15:08:15;99701.47;;;13.02;45.28
18527;BME280;9393;42.158;24.748;2022-11-25T15:11:21;99706.78;;;12.92;45.71
18527;BME280;9393;42.158;24.748;2022-11-25T15:14:27;99701.09;;;12.79;46.08
18527;BME280;9393;42.158;24.748;2022-11-25T15:17:34;99705.38;;;12.80;46.39
18527;BME280;9393;42.158;24.748;2022-11-25T15:20:39;99708.63;;;12.56;46.78
18527;BME280;9393;42.158;24.748;2022-11-25T15:23:44;99718.25;;;12.56;47.05
18527;BME280;9393;42.158;24.748;2022-11-25T15:26:50;99715.19;;;12.60;47.03
18527;BME280;9393;42.158;24.748;2022-11-25T15:29:55;99720.13;;;12.63;46.94
18527;BME280;9393;42.158;24.748;2022-11-25T15:33:00;99724.97;;;12.58;47.12
18527;BME280;9393;42.158;24.748;2022-11-25T15:36:05;99722.28;;;12.33;47.57
18527;BME280;9393;42.158;24.748;2022-11-25T15:39:20;99716.78;;;12.53;47.39
18527;BME280;9393;42.158;24.748;2022-11-25T15:42:27;99718.94;;;12.40;47.67
18527;BME280;9393;42.158;24.748;2022-11-25T15:45:41;99719.50;;;12.34;47.75
18527;BME280;9393;42.158;24.748;2022-11-25T15:48:47;99720.63;;;12.32;47.94
18527;BME280;9393;42.158;24.748;2022-11-25T15:51:56;99727.28;;;12.26;47.97
18527;BME280;9393;42.158;24.748;2022-11-25T15:55:06;99728.88;;;12.37;47.78
18527;BME280;9393;42.158;24.748;2022-11-25T15:58:12;99727.53;;;12.33;48.07
18527;BME280;9393;42.158;24.748;2022-11-25T16:01:21;99727.88;;;12.20;48.26
18527;BME280;9393;42.158;24.748;2022-11-25T16:04:30;99738.91;;;12.14;48.59
18527;BME280;9393;42.158;24.748;2022-11-25T16:07:33;99739.50;;;12.08;48.92
18527;BME280;9393;42.158;24.748;2022-11-25T16:10:53;99748.28;;;12.17;48.82
18527;BME280;9393;42.158;24.748;2022-11-25T16:14:16;99746.56;;;12.25;48.87
18527;BME280;9393;42.158;24.748;2022-11-25T16:17:21;99755.63;;;12.03;49.35
18527;BME280;9393;42.158;24.748;2022-11-25T16:20:29;99748.38;;;11.97;49.52
18527;BME280;9393;42.158;24.748;2022-11-25T16:23:33;99756.31;;;12.05;49.68
18527;BME280;9393;42.158;24.748;2022-11-25T16:26:48;99758.75;;;11.89;50.03
18527;BME280;9393;42.158;24.748;2022-11-25T16:29:56;99761.09;;;11.83;50.43
18527;BME280;9393;42.158;24.748;2022-11-25T16:33:09;99761.25;;;11.62;50.87
18527;BME280;9393;42.158;24.748;2022-11-25T16:36:13;99767.59;;;11.79;50.55
18527;BME280;9393;42.158;24.748;2022-11-25T16:39:17;99772.13;;;11.77;50.82
18527;BME280;9393;42.158;24.748;2022-11-25T16:42:23;99783.16;;;11.61;51.12
18527;BME280;9393;42.158;24.748;2022-11-25T16:45:27;99779.28;;;11.65;51.20